Time;durP1;ratioP1;P1;durP2;ratioP2;P2;SDS_P1;SDS_P2;PMS_P1;PMS_P2;Temp;Humidity;BMP_temperature;BMP_pressure;BME280_temperature;BME280_humidity;BME280_pressure;Samples;Min_cycle;Max_cycle;Signal;HPM_P1;HPM_P2
2024/02/19 00:01:05;;;;;;;23.48;10.95;;;8.90;96.70;;;;;;4975450;28;20547;-81
2024/02/19 00:03:31;;;;;;;23.80;11.43;;;8.90;96.70;;;;;;4980406;28;20019;-81
2024/02/19 00:05:57;;;;;;;19.92;10.43;;;8.90;96.80;;;;;;4973357;28;20030;-82
2024/02/19 00:08:23;;;;;;;27.67;12.10;;;8.90;96.80;;;;;;4979654;28;20039;-82
2024/02/19 00:10:51;;;;;;;22.92;11.93;;;8.80;96.90;;;;;;4957666;28;20039;-81
2024/02/19 00:13:18;;;;;;;19.35;11.73;;;8.80;96.90;;;;;;4967679;28;20110;-81
2024/02/19 00:15:44;;;;;;;22.73;11.60;;;8.80;96.90;;;;;;4961464;28;20040;-82
2024/02/19 00:18:10;;;;;;;24.88;11.45;;;8.70;96.90;;;;;;4960096;28;20025;-81
2024/02/19 00:20:36;;;;;;;20.38;11.35;;;8.70;96.90;;;;;;4967102;28;20030;-81
2024/02/19 00:23:02;;;;;;;22.02;11.05;;;8.60;96.90;;;;;;4981124;28;20030;-81
2024/02/19 00:25:29;;;;;;;24.20;11.52;;;8.60;96.90;;;;;;4973474;28;20026;-81
2024/02/19 00:27:54;;;;;;;23.38;12.07;;;8.60;96.80;;;;;;4977141;28;20132;-82
2024/02/19 00:30:20;;;;;;;23.45;11.40;;;8.60;96.70;;;;;;4992480;28;20454;-81
2024/02/19 00:32:46;;;;;;;20.98;10.70;;;8.50;96.70;;;;;;4978957;28;20460;-81
2024/02/19 00:35:12;;;;;;;19.90;10.93;;;8.50;96.80;;;;;;4970224;28;20039;-81
2024/02/19 00:37:37;;;;;;;23.02;11.65;;;8.40;96.80;;;;;;4965730;28;20030;-81
2024/02/19 00:40:04;;;;;;;22.60;10.45;;;8.40;96.70;;;;;;4956048;28;20418;-81
2024/02/19 00:42:30;;;;;;;21.50;11.57;;;8.30;96.70;;;;;;4982134;28;20072;-81
2024/02/19 00:44:56;;;;;;;21.27;11.45;;;8.20;96.60;;;;;;4973678;28;20034;-81
2024/02/19 00:47:22;;;;;;;22.92;10.70;;;8.20;96.70;;;;;;4960718;28;20031;-81
2024/02/19 00:49:49;;;;;;;20.17;11.20;;;8.10;96.60;;;;;;4961429;28;20041;-81
2024/02/19 00:52:14;;;;;;;18.90;10.65;;;8.10;96.70;;;;;;4975435;28;20073;-82
2024/02/19 00:54:42;;;;;;;25.33;12.27;;;8.10;96.80;;;;;;4974793;28;20026;-82
2024/02/19 00:57:08;;;;;;;18.30;10.52;;;8.10;96.90;;;;;;4982594;28;20039;-81
2024/02/19 00:59:34;;;;;;;22.52;10.93;;;8.10;97.00;;;;;;4978791;28;20053;-80
2024/02/19 01:01:59;;;;;;;20.52;10.68;;;8.10;97.00;;;;;;4978080;28;20046;-81
2024/02/19 01:04:25;;;;;;;19.83;10.50;;;8.10;97.00;;;;;;4975701;28;20037;-81
2024/02/19 01:06:50;;;;;;;21.02;10.77;;;8.10;97.10;;;;;;4977366;28;20038;-82
2024/02/19 01:09:16;;;;;;;22.42;11.30;;;8.10;97.10;;;;;;4974654;28;20061;-82
2024/02/19 01:11:42;;;;;;;24.10;11.73;;;8.10;97.20;;;;;;4973565;28;20477;-82
2024/02/19 01:14:08;;;;;;;22.33;11.02;;;8.10;97.30;;;;;;4981739;28;20105;-82
2024/02/19 01:16:33;;;;;;;22.90;11.30;;;8.10;97.30;;;;;;4974620;28;20388;-81
2024/02/19 01:18:59;;;;;;;23.38;10.80;;;8.10;97.30;;;;;;4981330;28;20536;-83
2024/02/19 01:21:24;;;;;;;20.45;10.38;;;8.10;97.30;;;;;;4975160;28;20050;-82
2024/02/19 01:23:50;;;;;;;22.85;10.18;;;8.10;97.30;;;;;;4977962;28;20069;-82
2024/02/19 01:26:20;;;;;;;19.98;10.65;;;8.10;97.40;;;;;;4967469;28;20070;-82
2024/02/19 01:28:46;;;;;;;24.85;11.30;;;8.00;97.40;;;;;;4976142;28;20037;-82
2024/02/19 01:31:12;;;;;;;21.38;10.63;;;8.00;97.50;;;;;;4973457;28;20066;-82
2024/02/19 01:33:38;;;;;;;22.23;10.88;;;8.00;97.40;;;;;;4979740;28;20053;-82
2024/02/19 01:36:05;;;;;;;23.65;11.20;;;8.00;97.40;;;;;;4980437;28;20054;-82
2024/02/19 01:38:30;;;;;;;23.35;9.75;;;7.90;97.40;;;;;;4977704;28;20479;-82
2024/02/19 01:40:56;;;;;;;26.33;11.10;;;8.00;97.50;;;;;;4977522;28;20293;-82
2024/02/19 01:43:22;;;;;;;22.73;11.25;;;7.90;97.50;;;;;;4976466;28;20030;-82
2024/02/19 01:45:49;;;;;;;21.83;11.23;;;7.90;97.50;;;;;;4982126;28;20346;-82
2024/02/19 01:48:16;;;;;;;27.15;12.85;;;7.90;97.60;;;;;;4977725;28;20050;-82
2024/02/19 01:50:45;;;;;;;24.88;12.98;;;7.90;97.60;;;;;;4976401;28;20022;-82
2024/02/19 01:53:11;;;;;;;22.42;12.32;;;7.80;97.60;;;;;;4975341;28;20109;-82
2024/02/19 01:55:38;;;;;;;27.17;11.52;;;7.80;97.60;;;;;;4976454;28;20437;-82
2024/02/19 01:58:06;;;;;;;21.80;11.95;;;7.80;97.60;;;;;;4977513;28;20340;-82
2024/02/19 02:00:33;;;;;;;22.33;11.95;;;7.80;97.60;;;;;;4974632;28;20061;-82
2024/02/19 02:03:00;;;;;;;24.88;12.27;;;7.80;97.60;;;;;;4974402;28;20034;-82
2024/02/19 02:05:26;;;;;;;27.75;12.52;;;7.70;97.60;;;;;;4978991;28;20473;-82
2024/02/19 02:07:52;;;;;;;26.42;12.25;;;7.70;97.70;;;;;;4973913;28;20038;-81
2024/02/19 02:10:18;;;;;;;24.98;12.35;;;7.70;97.70;;;;;;4968524;28;20027;-81
2024/02/19 02:12:44;;;;;;;26.35;11.90;;;7.70;97.70;;;;;;4955952;28;20547;-81
2024/02/19 02:15:10;;;;;;;24.35;11.73;;;7.60;97.70;;;;;;4956106;28;20070;-81
2024/02/19 02:17:36;;;;;;;23.42;11.60;;;7.60;97.70;;;;;;4976404;28;20134;-81
2024/02/19 02:20:02;;;;;;;24.08;11.85;;;7.60;97.70;;;;;;4976464;28;20062;-81
2024/02/19 02:22:27;;;;;;;22.75;10.95;;;7.60;97.70;;;;;;4975235;28;20465;-82
2024/02/19 02:24:53;;;;;;;20.73;11.15;;;7.60;97.70;;;;;;4974330;28;20675;-81
2024/02/19 02:27:18;;;;;;;25.27;12.23;;;7.60;97.70;;;;;;4981794;28;20049;-82
2024/02/19 02:29:44;;;;;;;25.90;12.20;;;7.50;97.70;;;;;;4975276;28;20041;-81
2024/02/19 02:32:10;;;;;;;23.95;12.07;;;7.50;97.70;;;;;;4973965;28;20495;-81
2024/02/19 02:34:35;;;;;;;19.38;11.88;;;7.50;97.70;;;;;;4969259;28;20528;-82
2024/02/19 02:37:04;;;;;;;24.75;12.65;;;7.50;97.70;;;;;;4973446;28;20372;-82
2024/02/19 02:39:32;;;;;;;22.67;11.93;;;7.40;97.70;;;;;;4975158;28;20042;-82
2024/02/19 02:41:57;;;;;;;22.27;13.70;;;7.40;97.70;;;;;;4975939;28;20038;-82
2024/02/19 02:44:24;;;;;;;26.17;12.52;;;7.50;97.80;;;;;;4972144;28;20753;-82
2024/02/19 02:46:50;;;;;;;23.13;13.25;;;7.40;97.70;;;;;;4972554;28;20035;-81
2024/02/19 02:49:15;;;;;;;22.95;12.20;;;7.40;97.70;;;;;;4976133;28;20056;-82
2024/02/19 02:51:41;;;;;;;24.25;13.13;;;7.40;97.70;;;;;;4973572;28;20061;-82
2024/02/19 02:54:06;;;;;;;27.90;13.40;;;7.40;97.70;;;;;;4977065;28;20042;-81
2024/02/19 02:56:32;;;;;;;22.25;12.77;;;7.40;97.80;;;;;;4974954;28;20199;-81
2024/02/19 02:58:58;;;;;;;25.25;12.20;;;7.40;97.80;;;;;;4973253;28;20380;-81
2024/02/19 03:01:30;;;;;;;27.58;14.30;;;7.30;97.90;;;;;;4957941;28;20035;-81
2024/02/19 03:03:56;;;;;;;24.40;13.20;;;7.40;98.00;;;;;;4948387;28;20039;-82
2024/02/19 03:06:22;;;;;;;25.63;13.73;;;7.40;98.00;;;;;;4968127;28;20065;-82
2024/02/19 03:08:47;;;;;;;25.23;14.32;;;7.40;98.00;;;;;;4975755;28;20022;-82
2024/02/19 03:11:13;;;;;;;26.13;14.05;;;7.40;98.00;;;;;;4971916;28;20034;-80
2024/02/19 03:13:39;;;;;;;26.45;14.63;;;7.40;98.00;;;;;;4975193;28;20472;-82
2024/02/19 03:16:05;;;;;;;30.33;15.63;;;7.50;98.10;;;;;;4976313;28;20129;-82
2024/02/19 03:18:32;;;;;;;24.40;14.30;;;7.50;98.10;;;;;;4974506;28;20073;-81
2024/02/19 03:20:59;;;;;;;23.52;14.77;;;7.50;98.10;;;;;;4977775;28;20266;-82
2024/02/19 03:23:26;;;;;;;26.45;14.35;;;7.60;98.10;;;;;;4970330;28;20109;-82
2024/02/19 03:25:52;;;;;;;25.15;14.23;;;7.50;98.10;;;;;;4969141;28;20039;-82
2024/02/19 03:28:18;;;;;;;24.98;14.70;;;7.60;98.20;;;;;;4979775;28;20026;-83
2024/02/19 03:30:44;;;;;;;28.77;15.20;;;7.60;98.20;;;;;;4974217;28;20646;-82
2024/02/19 03:33:10;;;;;;;29.27;16.35;;;7.60;98.30;;;;;;4973882;28;20077;-82
2024/02/19 03:35:36;;;;;;;32.40;16.63;;;7.80;98.30;;;;;;4977909;28;20132;-82
2024/02/19 03:38:01;;;;;;;29.52;16.20;;;7.90;98.40;;;;;;4967356;28;20311;-82
2024/02/19 03:40:27;;;;;;;28.05;15.82;;;7.90;98.40;;;;;;4970416;28;20030;-81
2024/02/19 03:42:52;;;;;;;29.17;16.00;;;8.00;98.50;;;;;;4977940;28;20037;-82
2024/02/19 03:45:18;;;;;;;29.58;14.95;;;8.10;98.50;;;;;;4979825;28;20118;-80
2024/02/19 03:47:44;;;;;;;30.63;15.20;;;8.20;98.50;;;;;;4978640;28;20046;-81
2024/02/19 03:50:11;;;;;;;31.27;16.02;;;8.20;98.50;;;;;;4972064;28;20023;-79
2024/02/19 03:52:37;;;;;;;24.63;14.32;;;8.30;98.50;;;;;;4972730;28;20089;-83
2024/02/19 03:55:03;;;;;;;27.42;14.48;;;8.30;98.50;;;;;;4978244;28;20022;-82
2024/02/19 03:57:30;;;;;;;32.35;15.38;;;8.30;98.50;;;;;;4979726;28;20049;-83
2024/02/19 03:59:55;;;;;;;30.40;14.57;;;8.30;98.50;;;;;;4974870;28;20038;-83
2024/02/19 04:02:21;;;;;;;31.88;15.75;;;8.30;98.50;;;;;;4976713;28;20069;-82
2024/02/19 04:04:47;;;;;;;28.23;15.00;;;8.40;98.50;;;;;;4974688;28;20030;-82
2024/02/19 04:07:12;;;;;;;32.10;14.88;;;8.40;98.60;;;;;;4971878;28;20590;-83
2024/02/19 04:09:38;;;;;;;35.83;15.65;;;8.40;98.50;;;;;;4972220;28;20019;-83
2024/02/19 04:12:10;;;;;;;27.80;13.60;;;8.50;98.60;;;;;;4973571;28;20519;-83
2024/02/19 04:14:40;;;;;;;23.90;12.63;;;8.50;98.60;;;;;;4974206;28;21511;-82
2024/02/19 04:17:06;;;;;;;30.92;14.48;;;8.50;98.60;;;;;;4976712;28;20118;-84
2024/02/19 04:19:31;;;;;;;30.83;14.30;;;8.50;98.60;;;;;;4971994;28;20579;-83
2024/02/19 04:21:57;;;;;;;28.30;14.10;;;8.50;98.60;;;;;;4976385;28;20086;-83
2024/02/19 04:24:22;;;;;;;31.60;13.85;;;8.50;98.60;;;;;;4974526;28;20026;-82
2024/02/19 04:26:48;;;;;;;23.30;12.65;;;8.50;98.60;;;;;;4972452;28;20046;-83
2024/02/19 04:29:14;;;;;;;31.95;14.93;;;8.50;98.60;;;;;;4970082;28;20130;-82
2024/02/19 04:31:43;;;;;;;31.83;15.20;;;8.50;98.60;;;;;;4969889;28;20122;-83
2024/02/19 04:34:09;;;;;;;32.60;15.20;;;8.50;98.70;;;;;;4971842;28;20031;-83
2024/02/19 04:36:34;;;;;;;26.17;14.68;;;8.60;98.70;;;;;;4975972;28;20065;-83
2024/02/19 04:39:00;;;;;;;30.20;13.82;;;8.60;98.70;;;;;;4986012;28;20038;-83
2024/02/19 04:41:26;;;;;;;29.60;14.90;;;8.60;98.60;;;;;;4981427;28;20062;-82
2024/02/19 04:43:51;;;;;;;32.40;14.48;;;8.60;98.60;;;;;;4979863;28;20034;-81
2024/02/19 04:46:17;;;;;;;31.15;15.00;;;8.60;98.60;;;;;;4976017;28;20034;-82
2024/02/19 04:48:43;;;;;;;32.33;15.50;;;8.60;98.60;;;;;;4978592;28;20015;-82
2024/02/19 04:51:09;;;;;;;33.60;14.80;;;8.70;98.60;;;;;;4968208;28;20031;-83
2024/02/19 04:53:34;;;;;;;33.25;16.98;;;8.60;98.50;;;;;;4958869;28;20054;-83
2024/02/19 04:56:00;;;;;;;27.20;14.35;;;8.60;98.50;;;;;;4973114;28;20089;-82
2024/02/19 04:58:25;;;;;;;30.90;14.75;;;8.70;98.50;;;;;;4978974;28;20481;-83
2024/02/19 05:00:51;;;;;;;32.78;15.82;;;8.70;98.50;;;;;;4978725;28;20028;-82
2024/02/19 05:03:17;;;;;;;26.45;15.82;;;8.70;98.50;;;;;;4977638;28;20528;-84
2024/02/19 05:05:42;;;;;;;30.48;15.90;;;8.70;98.40;;;;;;4973243;28;20429;-83
2024/02/19 05:08:08;;;;;;;29.63;14.88;;;8.80;98.40;;;;;;4976966;28;20026;-83
2024/02/19 05:10:34;;;;;;;38.90;16.05;;;8.80;98.40;;;;;;4979389;28;20068;-82
2024/02/19 05:13:00;;;;;;;35.00;16.98;;;8.80;98.30;;;;;;4977382;28;20474;-83
2024/02/19 05:15:26;;;;;;;32.40;15.80;;;8.80;98.30;;;;;;4977471;28;20038;-82
2024/02/19 05:17:51;;;;;;;30.88;16.38;;;8.80;98.30;;;;;;4978719;28;20026;-83
2024/02/19 05:20:17;;;;;;;28.48;16.75;;;8.90;98.30;;;;;;4973340;28;20034;-83
2024/02/19 05:22:45;;;;;;;31.20;15.88;;;8.80;98.30;;;;;;4975166;28;20042;-83
2024/02/19 05:25:11;;;;;;;28.30;16.05;;;8.80;98.30;;;;;;4974004;28;20039;-83
2024/02/19 05:27:37;;;;;;;32.35;16.80;;;8.90;98.30;;;;;;4979304;28;20033;-83
2024/02/19 05:30:03;;;;;;;34.42;17.30;;;8.90;98.30;;;;;;4973992;28;20038;-83
2024/02/19 05:32:28;;;;;;;33.00;16.75;;;8.90;98.20;;;;;;4977178;28;20153;-82
2024/02/19 05:34:54;;;;;;;32.33;16.27;;;8.90;98.30;;;;;;4974741;28;20407;-82
2024/02/19 05:37:20;;;;;;;34.63;15.65;;;8.90;98.30;;;;;;4982039;28;20053;-83
2024/02/19 05:39:45;;;;;;;31.70;16.05;;;9.00;98.20;;;;;;4973354;28;20128;-82
2024/02/19 05:42:11;;;;;;;32.08;17.33;;;9.00;98.20;;;;;;4977241;28;20029;-82
2024/02/19 05:44:36;;;;;;;26.95;15.73;;;8.90;98.20;;;;;;4964784;28;20026;-83
2024/02/19 05:47:02;;;;;;;31.13;15.25;;;8.90;98.20;;;;;;4972652;28;20038;-83
2024/02/19 05:49:28;;;;;;;30.77;16.55;;;9.00;98.20;;;;;;4978955;28;20053;-83
2024/02/19 05:51:54;;;;;;;37.55;16.70;;;9.00;98.20;;;;;;4978436;28;20034;-83
2024/02/19 05:54:22;;;;;;;32.78;15.85;;;9.00;98.20;;;;;;4978323;28;20416;-83
2024/02/19 05:56:48;;;;;;;27.73;15.80;;;8.90;98.10;;;;;;4957717;28;20039;-83
2024/02/19 05:59:13;;;;;;;28.67;15.75;;;8.90;98.20;;;;;;4957254;28;20034;-82
2024/02/19 06:01:39;;;;;;;30.00;16.23;;;8.90;98.10;;;;;;4966990;28;20121;-82
2024/02/19 06:04:05;;;;;;;24.27;15.70;;;8.90;98.20;;;;;;4972006;28;20027;-81
2024/02/19 06:06:31;;;;;;;33.20;15.32;;;8.80;98.20;;;;;;4951577;28;20271;-82
2024/02/19 06:08:56;;;;;;;26.55;16.10;;;8.90;98.20;;;;;;4956067;28;20035;-82
2024/02/19 06:11:22;;;;;;;27.73;15.52;;;8.80;98.10;;;;;;4973562;28;20211;-81
2024/02/19 06:13:48;;;;;;;28.95;15.57;;;8.80;98.20;;;;;;4976242;28;20037;-81
2024/02/19 06:16:15;;;;;;;26.35;15.18;;;8.70;98.20;;;;;;4971598;28;20702;-83
2024/02/19 06:18:40;;;;;;;28.67;15.13;;;8.60;98.10;;;;;;4973639;28;20102;-83
2024/02/19 06:21:06;;;;;;;32.10;16.10;;;8.60;98.10;;;;;;4970560;28;20171;-83
2024/02/19 06:23:31;;;;;;;26.92;15.02;;;8.60;98.20;;;;;;4978736;28;20018;-83
2024/02/19 06:25:58;;;;;;;25.85;15.15;;;8.60;98.20;;;;;;4973946;28;20030;-81
2024/02/19 06:28:23;;;;;;;32.45;16.63;;;8.60;98.20;;;;;;4976667;28;20516;-82
2024/02/19 06:30:49;;;;;;;31.70;16.45;;;8.60;98.30;;;;;;4973940;28;20255;-81
2024/02/19 06:33:16;;;;;;;31.15;16.45;;;8.60;98.30;;;;;;4977715;28;20387;-82
2024/02/19 06:35:42;;;;;;;31.67;17.55;;;8.60;98.20;;;;;;4973003;28;20543;-81
2024/02/19 06:38:08;;;;;;;31.88;17.05;;;8.60;98.30;;;;;;4974395;28;20070;-81
2024/02/19 06:40:34;;;;;;;30.10;16.63;;;8.70;98.30;;;;;;4972412;28;20035;-81
2024/02/19 06:43:00;;;;;;;27.42;16.55;;;8.70;98.30;;;;;;4974717;28;20060;-82
2024/02/19 06:45:26;;;;;;;32.85;17.65;;;8.70;98.20;;;;;;4973067;28;20046;-82
2024/02/19 06:47:51;;;;;;;31.80;16.02;;;8.70;98.20;;;;;;4976794;28;20018;-85
2024/02/19 06:50:17;;;;;;;30.77;15.68;;;8.70;98.10;;;;;;4975465;28;20038;-81
2024/02/19 06:52:45;;;;;;;30.15;16.45;;;8.70;98.10;;;;;;4977950;28;20037;-84
2024/02/19 06:55:15;;;;;;;29.95;15.88;;;8.70;98.10;;;;;;4971009;28;20096;-82
2024/02/19 06:57:41;;;;;;;28.25;14.35;;;8.70;98.00;;;;;;4969597;28;20071;-82
2024/02/19 07:00:09;;;;;;;27.73;15.13;;;8.70;98.00;;;;;;4956534;28;21418;-80
2024/02/19 07:02:35;;;;;;;27.45;14.57;;;8.70;98.00;;;;;;4955714;28;20015;-80
2024/02/19 07:05:01;;;;;;;27.55;14.48;;;8.60;97.90;;;;;;4958704;28;20486;-79
2024/02/19 07:07:27;;;;;;;25.60;14.00;;;8.60;97.90;;;;;;4978585;28;20452;-80
2024/02/19 07:09:53;;;;;;;28.83;14.98;;;8.60;97.90;;;;;;4972607;28;20706;-80
2024/02/19 07:12:18;;;;;;;32.97;14.38;;;8.60;98.00;;;;;;4977747;28;20317;-81
2024/02/19 07:14:44;;;;;;;26.80;14.73;;;8.50;98.00;;;;;;4974415;28;20068;-80
2024/02/19 07:17:10;;;;;;;27.13;13.02;;;8.50;98.00;;;;;;4975810;28;20446;-75
2024/02/19 07:19:36;;;;;;;24.65;13.15;;;8.50;98.00;;;;;;4973230;28;20019;-74
2024/02/19 07:22:02;;;;;;;26.38;13.75;;;8.50;98.10;;;;;;4954352;28;20393;-74
2024/02/19 07:24:29;;;;;;;24.98;13.27;;;8.50;98.10;;;;;;4958224;28;20282;-74
2024/02/19 07:26:55;;;;;;;25.60;13.07;;;8.50;98.00;;;;;;4972254;28;20709;-74
2024/02/19 07:29:23;;;;;;;26.27;13.98;;;8.50;98.10;;;;;;4978344;28;20026;-74
2024/02/19 07:31:51;;;;;;;27.15;12.75;;;8.50;98.10;;;;;;4972031;28;20042;-74
2024/02/19 07:34:17;;;;;;;23.50;14.50;;;8.50;98.00;;;;;;4974455;28;20211;-74
2024/02/19 07:36:45;;;;;;;23.50;12.45;;;8.60;98.10;;;;;;4952827;28;20529;-75
2024/02/19 07:39:11;;;;;;;26.70;13.68;;;8.60;98.10;;;;;;4954584;28;20350;-73
2024/02/19 07:41:37;;;;;;;23.95;12.45;;;8.60;98.10;;;;;;4949390;28;20027;-69
2024/02/19 07:44:03;;;;;;;25.48;12.85;;;8.70;98.00;;;;;;4952001;28;21792;-71
2024/02/19 07:46:28;;;;;;;27.17;13.32;;;8.70;97.90;;;;;;4955083;28;20053;-73
2024/02/19 07:48:54;;;;;;;32.70;14.05;;;8.70;97.90;;;;;;4947803;28;20031;-72
2024/02/19 07:51:20;;;;;;;29.38;16.63;;;8.80;97.90;;;;;;4972006;28;20035;-74
2024/02/19 07:53:47;;;;;;;30.50;17.52;;;8.80;97.90;;;;;;4970981;28;20112;-73
2024/02/19 07:56:12;;;;;;;32.47;19.20;;;8.80;97.80;;;;;;4975629;28;20031;-73
2024/02/19 07:58:38;;;;;;;29.42;20.02;;;8.80;97.80;;;;;;4973383;28;20053;-73
2024/02/19 08:01:04;;;;;;;34.05;22.65;;;8.90;97.80;;;;;;4975666;28;20215;-73
2024/02/19 08:03:31;;;;;;;33.80;22.83;;;9.00;97.80;;;;;;4976354;28;20667;-73
2024/02/19 08:05:56;;;;;;;36.55;26.90;;;9.10;97.70;;;;;;4974743;28;20053;-73
2024/02/19 08:08:22;;;;;;;40.60;28.95;;;9.10;97.60;;;;;;4977224;28;20468;-72
2024/02/19 08:10:48;;;;;;;37.30;29.30;;;9.30;97.50;;;;;;4977230;28;20026;-73
2024/02/19 08:13:15;;;;;;;35.90;26.23;;;9.30;97.40;;;;;;4978813;28;22440;-73
2024/02/19 08:15:41;;;;;;;30.27;20.00;;;9.50;97.30;;;;;;4974540;28;20791;-72
2024/02/19 08:18:07;;;;;;;30.60;17.42;;;9.60;97.20;;;;;;4977303;28;20465;-74
2024/02/19 08:20:34;;;;;;;27.40;14.40;;;9.60;96.90;;;;;;4977368;28;20073;-73
2024/02/19 08:22:59;;;;;;;23.95;13.70;;;9.70;96.70;;;;;;4977367;28;20030;-73
2024/02/19 08:25:25;;;;;;;25.35;13.10;;;9.80;96.70;;;;;;4978144;28;20555;-73
2024/02/19 08:27:51;;;;;;;22.98;13.65;;;9.80;96.50;;;;;;4979131;28;20112;-73
2024/02/19 08:30:16;;;;;;;23.10;13.93;;;9.80;96.40;;;;;;4971985;28;20406;-74
2024/02/19 08:32:42;;;;;;;26.58;14.45;;;9.80;96.20;;;;;;4976593;28;20565;-73
2024/02/19 08:35:08;;;;;;;25.75;15.20;;;9.80;96.20;;;;;;4976035;28;20499;-74
2024/02/19 08:37:33;;;;;;;25.33;14.00;;;9.90;96.00;;;;;;4979670;28;20042;-72
2024/02/19 08:39:59;;;;;;;28.00;14.98;;;9.80;96.00;;;;;;4977244;28;20072;-72
2024/02/19 08:42:25;;;;;;;25.17;15.40;;;9.90;96.00;;;;;;4973765;28;20035;-73
2024/02/19 08:44:50;;;;;;;27.92;15.65;;;10.10;96.10;;;;;;4978268;28;20300;-73
2024/02/19 08:47:17;;;;;;;23.67;15.10;;;10.20;96.10;;;;;;4975938;28;20125;-73
2024/02/19 08:49:43;;;;;;;26.33;16.00;;;10.20;95.80;;;;;;4975310;28;20074;-74
2024/02/19 08:52:09;;;;;;;27.17;15.25;;;10.10;95.60;;;;;;4977193;28;20042;-72
2024/02/19 08:54:36;;;;;;;27.10;17.63;;;10.20;95.60;;;;;;4976628;28;20024;-73
2024/02/19 08:57:01;;;;;;;28.05;18.73;;;10.20;95.30;;;;;;4978025;28;20150;-74
2024/02/19 08:59:27;;;;;;;32.15;18.58;;;10.10;95.20;;;;;;4979886;28;20043;-72
2024/02/19 09:01:53;;;;;;;33.72;20.80;;;10.00;95.40;;;;;;4975363;28;20112;-72
2024/02/19 09:04:20;;;;;;;36.03;23.00;;;9.90;95.60;;;;;;4983055;28;20029;-73
2024/02/19 09:06:46;;;;;;;40.47;25.05;;;9.90;95.70;;;;;;4976543;28;20041;-73
2024/02/19 09:09:12;;;;;;;46.40;28.20;;;9.80;95.80;;;;;;4978010;28;20033;-73
2024/02/19 09:11:37;;;;;;;46.00;27.95;;;9.70;96.00;;;;;;4974360;28;20035;-74
2024/02/19 09:14:04;;;;;;;43.88;29.10;;;9.60;96.60;;;;;;4977913;28;20018;-73
2024/02/19 09:16:31;;;;;;;49.05;28.52;;;9.60;96.90;;;;;;4975776;28;20035;-73
2024/02/19 09:18:57;;;;;;;47.60;27.27;;;9.60;97.10;;;;;;4978411;28;20624;-73
2024/02/19 09:21:23;;;;;;;49.90;27.52;;;9.50;97.30;;;;;;4972276;28;20030;-73
2024/02/19 09:23:48;;;;;;;46.63;26.98;;;9.60;97.40;;;;;;4977877;28;20354;-73
2024/02/19 09:26:14;;;;;;;44.63;24.13;;;9.60;97.50;;;;;;4974568;28;20038;-73
2024/02/19 09:28:40;;;;;;;41.30;23.50;;;9.60;97.70;;;;;;4976973;28;20611;-72
2024/02/19 09:31:06;;;;;;;45.83;23.77;;;9.60;97.80;;;;;;4974945;28;20031;-72
2024/02/19 09:33:32;;;;;;;44.05;22.20;;;9.70;97.90;;;;;;4977547;28;20137;-72
2024/02/19 09:35:57;;;;;;;43.97;22.88;;;9.70;97.90;;;;;;4974906;28;20073;-73
2024/02/19 09:38:23;;;;;;;40.00;23.67;;;9.70;98.00;;;;;;4977885;28;20295;-73
2024/02/19 09:40:49;;;;;;;44.97;23.00;;;9.80;98.00;;;;;;4976820;28;20377;-72
2024/02/19 09:43:20;;;;;;;39.33;21.33;;;9.80;97.90;;;;;;4977782;28;20448;-72
2024/02/19 09:45:48;;;;;;;41.75;21.98;;;9.80;97.90;;;;;;4973969;28;20034;-72
2024/02/19 09:48:19;;;;;;;43.45;22.27;;;9.80;97.90;;;;;;4977780;28;20066;-72
2024/02/19 09:50:48;;;;;;;38.45;21.10;;;9.80;97.90;;;;;;4969250;28;20035;-72
2024/02/19 09:53:27;;;;;;;41.30;22.25;;;9.90;98.00;;;;;;4956999;28;20708;-72
2024/02/19 09:55:53;;;;;;;42.35;22.85;;;9.90;98.10;;;;;;4965887;28;20046;-73
2024/02/19 09:58:19;;;;;;;35.20;21.08;;;10.00;97.90;;;;;;4976427;28;20030;-72
2024/02/19 10:00:45;;;;;;;38.85;20.98;;;10.00;97.80;;;;;;4975083;28;20460;-72
2024/02/19 10:03:12;;;;;;;36.47;20.52;;;10.00;97.70;;;;;;4976193;28;20106;-73
2024/02/19 10:05:37;;;;;;;38.28;19.60;;;10.00;97.60;;;;;;4971182;28;20125;-72
2024/02/19 10:08:13;;;;;;;33.53;19.88;;;10.10;97.60;;;;;;4973507;28;20573;-72
2024/02/19 10:10:41;;;;;;;38.25;19.58;;;10.10;97.60;;;;;;4975116;28;20484;-73
2024/02/19 10:13:10;;;;;;;36.30;19.77;;;10.10;97.60;;;;;;4976426;28;20042;-73
2024/02/19 10:15:35;;;;;;;35.38;17.80;;;10.20;97.50;;;;;;4974030;28;20353;-71
2024/02/19 10:18:15;;;;;;;34.58;17.70;;;10.30;97.50;;;;;;4973761;28;20038;-72
2024/02/19 10:20:43;;;;;;;29.02;18.45;;;10.60;97.40;;;;;;4971943;28;20043;-74
2024/02/19 10:23:10;;;;;;;33.28;18.88;;;10.60;97.00;;;;;;4973002;28;20028;-75
2024/02/19 10:25:36;;;;;;;32.22;19.08;;;10.60;96.50;;;;;;4965035;28;20471;-74
2024/02/19 10:28:01;;;;;;;27.27;16.60;;;10.70;96.40;;;;;;4946594;28;20529;-74
2024/02/19 10:30:27;;;;;;;32.20;17.52;;;10.80;96.10;;;;;;4948050;28;20042;-73
2024/02/19 10:32:52;;;;;;;28.95;16.90;;;10.80;95.80;;;;;;4954148;28;20015;-72
2024/02/19 10:35:18;;;;;;;28.38;16.48;;;10.70;95.60;;;;;;4954021;28;20049;-73
2024/02/19 10:37:44;;;;;;;27.33;16.50;;;10.70;95.40;;;;;;4952518;28;20489;-72
2024/02/19 10:40:13;;;;;;;24.48;16.38;;;10.60;95.40;;;;;;4961994;28;20026;-73
2024/02/19 10:42:39;;;;;;;24.27;16.30;;;10.60;95.30;;;;;;4976769;28;20097;-73
2024/02/19 10:45:08;;;;;;;29.98;17.23;;;10.70;95.00;;;;;;4971749;28;20445;-73
2024/02/19 10:47:33;;;;;;;27.63;16.58;;;10.60;95.00;;;;;;4976380;28;20027;-73
2024/02/19 10:49:59;;;;;;;29.52;17.48;;;10.60;95.10;;;;;;4970252;28;20458;-73
2024/02/19 10:52:25;;;;;;;27.10;17.58;;;10.60;95.20;;;;;;4956082;28;20019;-73
2024/02/19 10:54:56;;;;;;;24.58;15.38;;;10.50;95.30;;;;;;4962165;28;20076;-73
2024/02/19 10:57:21;;;;;;;24.85;15.63;;;10.50;95.10;;;;;;4972303;28;20050;-72
2024/02/19 10:59:47;;;;;;;22.98;13.82;;;10.50;95.20;;;;;;4978796;28;20040;-74
2024/02/19 11:02:20;;;;;;;26.65;13.02;;;10.50;95.10;;;;;;4954142;28;20027;-74
2024/02/19 11:04:51;;;;;;;23.73;13.30;;;10.50;94.80;;;;;;4956709;28;20075;-72
2024/02/19 11:07:17;;;;;;;24.33;12.48;;;10.60;94.70;;;;;;4955748;28;20031;-74
2024/02/19 11:09:43;;;;;;;24.33;12.38;;;10.60;94.60;;;;;;4955742;28;20037;-73
2024/02/19 11:12:13;;;;;;;21.70;12.02;;;10.50;94.80;;;;;;4976800;28;20365;-73
2024/02/19 11:14:42;;;;;;;21.45;10.57;;;10.60;94.80;;;;;;4975162;28;20026;-73
2024/02/19 11:17:09;;;;;;;23.08;12.32;;;10.60;94.70;;;;;;4969133;28;20069;-73
2024/02/19 11:19:38;;;;;;;22.83;13.55;;;10.60;94.60;;;;;;4974608;28;20026;-74
2024/02/19 11:22:08;;;;;;;23.58;13.25;;;10.60;94.50;;;;;;4975621;28;20511;-73
2024/02/19 11:24:34;;;;;;;27.08;14.13;;;10.60;94.50;;;;;;4971947;28;20206;-73
2024/02/19 11:27:01;;;;;;;25.20;14.45;;;10.60;94.50;;;;;;4950146;28;20092;-73
2024/02/19 11:29:27;;;;;;;25.75;14.23;;;10.60;94.60;;;;;;4956598;28;20011;-73
2024/02/19 11:32:00;;;;;;;28.85;15.00;;;10.70;94.60;;;;;;4969562;28;20742;-73
2024/02/19 11:34:26;;;;;;;26.23;13.48;;;10.70;94.50;;;;;;4963778;28;20360;-73
2024/02/19 11:36:52;;;;;;;23.55;15.18;;;10.70;94.40;;;;;;4972353;28;20034;-74
2024/02/19 11:39:17;;;;;;;28.90;15.90;;;10.90;94.20;;;;;;4976480;28;20617;-73
2024/02/19 11:41:43;;;;;;;28.23;14.43;;;11.00;94.10;;;;;;4974485;28;20576;-73
2024/02/19 11:44:12;;;;;;;24.63;14.60;;;11.10;93.80;;;;;;4975851;28;20027;-73
2024/02/19 11:46:40;;;;;;;23.33;13.45;;;11.20;93.60;;;;;;4974140;28;20042;-73
2024/02/19 11:49:10;;;;;;;23.55;13.50;;;11.30;93.20;;;;;;4975632;28;20053;-73
2024/02/19 11:51:40;;;;;;;19.70;12.95;;;11.40;93.10;;;;;;4974068;28;20023;-73
2024/02/19 11:54:09;;;;;;;21.33;12.23;;;11.40;93.00;;;;;;4978385;28;20117;-73
2024/02/19 11:56:52;;;;;;;24.92;13.48;;;11.50;93.10;;;;;;4972523;28;20523;-72
2024/02/19 11:59:19;;;;;;;22.33;12.43;;;11.60;93.00;;;;;;4977760;28;20022;-73
2024/02/19 12:01:45;;;;;;;26.92;13.73;;;11.60;92.80;;;;;;4973146;28;20080;-72
2024/02/19 12:04:13;;;;;;;23.38;12.15;;;11.60;92.70;;;;;;4975271;28;20425;-73
2024/02/19 12:06:39;;;;;;;21.10;12.13;;;11.70;92.60;;;;;;4972134;28;20113;-73
2024/02/19 12:09:08;;;;;;;20.40;11.07;;;11.90;92.40;;;;;;4972637;28;20033;-72
2024/02/19 12:11:34;;;;;;;23.23;11.68;;;12.10;92.00;;;;;;4972245;28;20423;-73
2024/02/19 12:13:59;;;;;;;24.48;11.50;;;12.10;91.30;;;;;;4977238;28;20019;-73
2024/02/19 12:16:27;;;;;;;23.20;11.40;;;12.10;91.00;;;;;;4972476;28;20109;-73
2024/02/19 12:18:56;;;;;;;21.65;11.65;;;12.10;91.10;;;;;;4974586;28;20546;-73
2024/02/19 12:21:25;;;;;;;21.25;11.60;;;12.10;90.80;;;;;;4975144;28;20738;-72
2024/02/19 12:23:52;;;;;;;20.25;10.85;;;12.20;90.70;;;;;;4976408;28;20053;-72
2024/02/19 12:26:22;;;;;;;20.05;10.90;;;12.20;90.70;;;;;;4977730;28;20272;-74
2024/02/19 12:28:49;;;;;;;22.80;11.57;;;12.10;90.80;;;;;;4962757;28;20534;-73
2024/02/19 12:31:15;;;;;;;17.65;8.85;;;12.00;90.90;;;;;;4971557;28;20658;-73